createdAt,value
2018-05-10T00:00:28.991Z,73.27
2018-05-10T00:01:28.920Z,72.99
2018-05-10T00:02:28.931Z,73.08
2018-05-10T00:03:28.779Z,73.46
2018-05-10T00:04:28.713Z,73.66
2018-05-10T00:05:28.630Z,73.46
2018-05-10T00:06:28.571Z,73.08
2018-05-10T00:07:28.499Z,72.50
2018-05-10T00:08:28.430Z,72.02
2018-05-10T00:09:28.359Z,71.93
2018-05-10T00:10:28.286Z,72.02
2018-05-10T00:11:28.218Z,73.37
2018-05-10T00:12:28.152Z,72.60
2018-05-10T00:13:28.074Z,72.22
2018-05-10T00:14:28.017Z,72.41
2018-05-10T00:15:27.940Z,72.41
2018-05-10T00:16:27.869Z,72.31
2018-05-10T00:17:27.802Z,72.60
2018-05-10T00:18:27.728Z,72.12
2018-05-10T00:19:27.662Z,72.31
2018-05-10T00:20:27.590Z,72.02
2018-05-10T00:21:27.541Z,72.31
2018-05-10T00:22:27.449Z,71.64
2018-05-10T00:23:27.383Z,71.55
2018-05-10T00:24:27.383Z,71.25
2018-05-10T00:25:27.244Z,71.35
2018-05-10T00:26:27.170Z,71.25
2018-05-10T00:27:27.103Z,71.25
2018-05-10T00:28:27.032Z,71.25
2018-05-10T00:29:26.962Z,71.93
2018-05-10T00:30:26.913Z,71.93
2018-05-10T00:31:26.826Z,71.25
2018-05-10T00:32:26.757Z,71.16
2018-05-10T00:33:26.684Z,71.06
2018-05-10T00:34:26.616Z,70.49
2018-05-10T00:35:26.562Z,70.87
2018-05-10T00:36:26.475Z,71.06
2018-05-10T00:37:26.430Z,69.81
2018-05-10T00:38:26.349Z,70.29
2018-05-10T00:39:26.269Z,70.01
2018-05-10T00:40:26.197Z,70.29
2018-05-10T00:41:26.129Z,70.87
2018-05-10T00:42:26.052Z,69.91
2018-05-10T00:43:25.991Z,69.72
2018-05-10T00:44:25.917Z,69.53
2018-05-10T00:45:25.848Z,68.82
2018-05-10T00:46:25.790Z,68.44
2018-05-10T00:47:25.707Z,68.76
2018-05-10T00:48:25.645Z,68.47
2018-05-10T00:49:25.576Z,68.63
2018-05-10T00:50:25.500Z,68.63
2018-05-10T00:51:25.434Z,67.99
2018-05-10T00:52:25.362Z,68.44
2018-05-10T00:53:25.289Z,67.96
2018-05-10T00:54:25.225Z,68.44
2018-05-10T00:55:25.157Z,67.96
2018-05-10T00:56:25.119Z,68.05
2018-05-10T00:57:25.014Z,68.24
2018-05-10T00:58:24.935Z,67.76
2018-05-10T00:59:24.874Z,68.05
2018-05-10T01:00:24.801Z,67.96
2018-05-10T01:01:24.730Z,67.96
2018-05-10T01:02:24.666Z,67.57
2018-05-10T01:03:24.594Z,68.24
2018-05-10T01:04:24.518Z,68.24
2018-05-10T01:05:24.449Z,68.34
2018-05-10T01:06:24.385Z,67.96
2018-05-10T01:07:24.313Z,68.05
2018-05-10T01:08:24.239Z,67.86
2018-05-10T01:09:24.171Z,68.24
2018-05-10T01:10:24.098Z,68.05
2018-05-10T01:11:24.031Z,68.34
2018-05-10T01:12:23.956Z,67.76
2018-05-10T01:13:23.910Z,68.15
2018-05-10T01:14:23.823Z,68.05
2018-05-10T01:15:23.752Z,69.01
2018-05-10T01:16:23.681Z,69.30
2018-05-10T01:17:23.614Z,68.44
2018-05-10T01:18:23.552Z,68.44
2018-05-10T01:19:23.471Z,69.20
2018-05-10T01:20:23.400Z,68.91
2018-05-10T01:21:23.336Z,69.78
2018-05-10T01:22:23.262Z,69.78
2018-05-10T01:23:23.193Z,69.11
2018-05-10T01:24:23.118Z,69.20
2018-05-10T01:25:23.068Z,69.40
2018-05-10T01:26:22.991Z,69.87
2018-05-10T01:27:22.912Z,69.68
2018-05-10T01:28:22.838Z,69.87
2018-05-10T01:29:22.775Z,70.45
2018-05-10T01:30:22.703Z,69.87
2018-05-10T01:31:22.629Z,69.93
2018-05-10T01:32:22.559Z,70.03
2018-05-10T01:33:22.490Z,70.51
2018-05-10T01:34:22.419Z,70.61
2018-05-10T01:35:22.347Z,71.09
2018-05-10T01:36:22.282Z,70.99
2018-05-10T01:37:22.207Z,70.90
2018-05-10T01:38:22.142Z,71.19
2018-05-10T01:39:22.069Z,71.19
2018-05-10T01:40:21.999Z,71.28
2018-05-10T01:41:21.927Z,71.28
2018-05-10T01:42:21.857Z,71.57
2018-05-10T01:43:21.788Z,71.76
2018-05-10T01:44:21.713Z,71.95
2018-05-10T01:45:21.650Z,72.05
2018-05-10T01:46:21.577Z,72.33
2018-05-10T01:47:21.511Z,72.33
2018-05-10T01:48:21.436Z,72.24
2018-05-10T01:49:21.377Z,72.53
2018-05-10T01:50:21.295Z,73.10
2018-05-10T01:51:21.228Z,73.10
2018-05-10T01:52:21.172Z,72.53
2018-05-10T01:53:21.087Z,72.24
2018-05-10T01:54:21.017Z,72.24
2018-05-10T01:55:20.943Z,72.53
2018-05-10T01:56:20.866Z,72.05
2018-05-10T01:57:20.816Z,72.24
2018-05-10T01:58:20.734Z,72.20
2018-05-10T01:59:20.677Z,72.14
2018-05-10T02:00:20.592Z,72.05
2018-05-10T02:01:20.518Z,72.43
2018-05-10T02:02:20.462Z,72.91
2018-05-10T02:03:20.392Z,72.14
2018-05-10T02:04:20.315Z,72.24
2018-05-10T02:05:20.240Z,72.14
2018-05-10T02:06:20.170Z,72.24
2018-05-10T02:07:20.104Z,72.01
2018-05-10T02:08:20.033Z,72.20
2018-05-10T02:09:19.960Z,72.20
2018-05-10T02:10:19.889Z,73.07
2018-05-10T02:11:19.833Z,72.49
2018-05-10T02:12:19.745Z,72.01
2018-05-10T02:13:19.686Z,72.78
2018-05-10T02:14:19.607Z,72.97
2018-05-10T02:15:19.541Z,73.26
2018-05-10T02:16:19.471Z,73.35
2018-05-10T02:17:19.403Z,72.59
2018-05-10T02:18:19.325Z,73.07
2018-05-10T02:19:19.258Z,72.97
2018-05-10T02:20:19.183Z,73.45
2018-05-10T02:21:19.123Z,73.45
2018-05-10T02:22:19.044Z,73.26
2018-05-10T02:23:18.977Z,73.35
2018-05-10T02:24:18.909Z,73.65
2018-05-10T02:25:18.840Z,73.35
2018-05-10T02:26:18.763Z,73.26
2018-05-10T02:27:18.695Z,73.55
2018-05-10T02:28:18.633Z,74.31
2018-05-10T02:29:18.552Z,73.45
2018-05-10T02:30:18.481Z,73.07
2018-05-10T02:31:18.418Z,73.65
2018-05-10T02:32:18.340Z,73.26
2018-05-10T02:33:18.264Z,73.55
2018-05-10T02:34:18.200Z,72.78
2018-05-10T02:35:18.128Z,73.16
2018-05-10T02:36:18.107Z,72.97
2018-05-10T02:37:17.989Z,74.60
2018-05-10T02:38:17.918Z,73.45
2018-05-10T02:39:17.847Z,73.65
2018-05-10T02:40:17.775Z,73.74
2018-05-10T02:41:17.703Z,73.45
2018-05-10T02:42:17.635Z,73.65
2018-05-10T02:43:17.565Z,73.70
2018-05-10T02:44:17.503Z,73.61
2018-05-10T02:45:17.432Z,73.74
2018-05-10T02:46:17.363Z,73.70
2018-05-10T02:47:17.284Z,73.51
2018-05-10T02:48:17.214Z,74.47
2018-05-10T02:49:17.188Z,74.37
2018-05-10T02:50:17.072Z,74.18
2018-05-10T02:51:16.999Z,74.76
2018-05-10T02:52:16.932Z,74.57
2018-05-10T02:53:16.861Z,74.66
2018-05-10T02:54:16.788Z,74.66
2018-05-10T02:55:16.722Z,74.66
2018-05-10T02:56:16.643Z,74.95
2018-05-10T02:57:16.583Z,74.85
2018-05-10T02:58:16.506Z,74.85
2018-05-10T02:59:16.436Z,75.04
2018-05-10T03:00:16.371Z,75.04
2018-05-10T03:01:16.297Z,75.04
2018-05-10T03:02:16.230Z,75.43
2018-05-10T03:03:16.154Z,75.23
2018-05-10T03:04:16.086Z,75.04
2018-05-10T03:05:16.019Z,75.81
2018-05-10T03:06:15.936Z,75.77
2018-05-10T03:07:15.873Z,75.58
2018-05-10T03:08:15.798Z,75.20
2018-05-10T03:09:15.723Z,76.15
2018-05-10T03:10:15.660Z,75.96
2018-05-10T03:11:15.588Z,75.29
2018-05-10T03:12:15.523Z,76.35
2018-05-10T03:13:15.445Z,75.58
2018-05-10T03:14:15.380Z,75.68
2018-05-10T03:15:15.312Z,75.87
2018-05-10T03:16:15.231Z,75.48
2018-05-10T03:17:15.162Z,75.68
2018-05-10T03:18:15.091Z,75.68
2018-05-10T03:19:15.055Z,75.96
2018-05-10T03:20:14.949Z,76.15
2018-05-10T03:21:14.878Z,76.06
2018-05-10T03:22:14.812Z,75.68
2018-05-10T03:23:14.738Z,75.58
2018-05-10T03:24:14.668Z,75.87
2018-05-10T03:25:14.596Z,75.77
2018-05-10T03:26:14.524Z,76.35
2018-05-10T03:27:14.453Z,75.48
2018-05-10T03:28:14.391Z,75.20
2018-05-10T03:29:14.360Z,75.77
2018-05-10T03:30:14.248Z,75.20
2018-05-10T03:31:14.165Z,74.91
2018-05-10T03:32:14.100Z,75.10
2018-05-10T03:33:14.116Z,75.29
2018-05-10T03:34:13.963Z,75.01
2018-05-10T03:35:13.908Z,75.01
2018-05-10T03:36:13.814Z,75.39
2018-05-10T03:37:13.784Z,75.29
2018-05-10T03:38:13.676Z,75.29
2018-05-10T03:39:13.600Z,75.10
2018-05-10T03:40:13.530Z,74.82
2018-05-10T03:41:13.461Z,75.77
2018-05-10T03:42:13.389Z,75.10
2018-05-10T03:43:13.319Z,75.29
2018-05-10T03:44:13.245Z,75.20
2018-05-10T03:45:13.178Z,74.82
2018-05-10T03:46:13.104Z,75.77
2018-05-10T03:47:13.037Z,75.20
2018-05-10T03:48:12.965Z,75.01
2018-05-10T03:49:12.890Z,75.29
2018-05-10T03:50:12.824Z,75.01
2018-05-10T03:51:12.752Z,75.68
2018-05-10T03:52:12.677Z,75.39
2018-05-10T03:53:12.612Z,75.20
2018-05-10T03:54:12.537Z,75.10
2018-05-10T03:55:12.475Z,74.91
2018-05-10T03:56:12.397Z,75.77
2018-05-10T03:57:12.326Z,75.68
2018-05-10T03:58:12.254Z,75.77
2018-05-10T03:59:12.193Z,75.68
2018-05-10T04:00:12.111Z,75.68
2018-05-10T04:01:12.040Z,75.58
2018-05-10T04:02:11.970Z,75.58
2018-05-10T04:03:11.899Z,76.35
2018-05-10T04:04:11.851Z,75.29
2018-05-10T04:05:11.752Z,74.91
2018-05-10T04:06:11.687Z,75.29
2018-05-10T04:07:11.622Z,75.16
2018-05-10T04:08:11.541Z,75.07
2018-05-10T04:09:11.471Z,75.16
2018-05-10T04:10:11.393Z,75.07
2018-05-10T04:11:11.328Z,75.54
2018-05-10T04:12:11.257Z,75.16
2018-05-10T04:13:11.183Z,75.93
2018-05-10T04:14:11.119Z,76.40
2018-05-10T04:15:11.044Z,76.40
2018-05-10T04:16:11.035Z,76.79
2018-05-10T04:17:10.902Z,76.98
2018-05-10T04:18:10.827Z,76.98
2018-05-10T04:19:10.756Z,76.89
2018-05-10T04:20:10.690Z,77.17
2018-05-10T04:21:10.627Z,77.17
2018-05-10T04:22:10.545Z,77.26
2018-05-10T04:23:10.477Z,77.46
2018-05-10T04:24:10.404Z,77.55
2018-05-10T04:25:10.329Z,77.75
2018-05-10T04:26:10.265Z,77.55
2018-05-10T04:27:10.191Z,77.55
2018-05-10T04:28:10.136Z,77.46
2018-05-10T04:29:10.048Z,77.84
2018-05-10T04:30:09.986Z,78.13
2018-05-10T04:31:09.906Z,77.84
2018-05-10T04:32:09.839Z,77.75
2018-05-10T04:33:09.761Z,77.55
2018-05-10T04:34:09.692Z,77.94
2018-05-10T04:35:09.621Z,77.65
2018-05-10T04:36:09.557Z,78.09
2018-05-10T04:37:09.478Z,78.28
2018-05-10T04:38:09.403Z,78.66
2018-05-10T04:39:09.330Z,77.99
2018-05-10T04:40:09.266Z,78.57
2018-05-10T04:41:09.193Z,78.32
2018-05-10T04:42:09.175Z,78.57
2018-05-10T04:43:09.051Z,78.47
2018-05-10T04:44:08.979Z,78.66
2018-05-10T04:45:08.911Z,79.14
2018-05-10T04:46:08.838Z,78.57
2018-05-10T04:47:08.765Z,79.24
2018-05-10T04:48:08.686Z,79.24
2018-05-10T04:49:08.627Z,79.24
2018-05-10T04:50:08.549Z,78.76
2018-05-10T04:51:08.489Z,78.76
2018-05-10T04:52:08.403Z,78.47
2018-05-10T04:53:08.336Z,78.76
2018-05-10T04:54:08.265Z,78.66
2018-05-10T04:55:08.194Z,79.33
2018-05-10T04:56:08.138Z,79.43
2018-05-10T04:57:08.056Z,78.47
2018-05-10T04:58:07.984Z,79.14
2018-05-10T04:59:07.915Z,78.86
2018-05-10T05:00:07.832Z,79.05
2018-05-10T05:01:07.765Z,78.76
2018-05-10T05:02:07.695Z,79.33
2018-05-10T05:03:07.624Z,79.24
2018-05-10T05:04:07.547Z,79.29
2018-05-10T05:05:07.483Z,78.91
2018-05-10T05:06:07.411Z,78.91
2018-05-10T05:07:07.338Z,79.20
2018-05-10T05:08:07.263Z,80.10
2018-05-10T05:09:07.271Z,80.48
2018-05-10T05:10:07.122Z,79.72
2018-05-10T05:11:07.052Z,79.05
2018-05-10T05:12:06.983Z,79.33
2018-05-10T05:13:06.904Z,78.86
2018-05-10T05:14:06.838Z,79.43
2018-05-10T05:15:06.766Z,78.95
2018-05-10T05:16:06.740Z,79.14
2018-05-10T05:17:06.628Z,79.10
2018-05-10T05:18:06.553Z,79.62
2018-05-10T05:19:06.480Z,79.52
2018-05-10T05:20:06.405Z,79.24
2018-05-10T05:21:06.337Z,79.52
2018-05-10T05:22:06.262Z,79.81
2018-05-10T05:23:06.194Z,79.62
2018-05-10T05:24:06.120Z,79.20
2018-05-10T05:25:06.050Z,78.95
2018-05-10T05:26:05.983Z,79.05
2018-05-10T05:27:05.910Z,78.95
2018-05-10T05:28:05.835Z,78.95
2018-05-10T05:29:05.768Z,78.57
2018-05-10T05:30:05.698Z,78.66
2018-05-10T05:31:05.625Z,79.29
2018-05-10T05:32:05.549Z,79.00
2018-05-10T05:33:05.485Z,79.39
2018-05-10T05:34:05.407Z,79.10
2018-05-10T05:35:05.355Z,78.91
2018-05-10T05:36:05.311Z,79.20
2018-05-10T05:37:05.207Z,78.81
2018-05-10T05:38:05.122Z,79.20
2018-05-10T05:39:05.052Z,78.34
2018-05-10T05:40:04.979Z,77.95
2018-05-10T05:41:05.073Z,78.53
2018-05-10T05:42:04.831Z,79.00
2018-05-10T05:43:04.760Z,79.10
2018-05-10T05:44:04.695Z,79.39
2018-05-10T05:45:04.642Z,78.14
2018-05-10T05:46:04.550Z,78.53
2018-05-10T05:47:04.497Z,79.29
2018-05-10T05:48:04.413Z,78.91
2018-05-10T05:49:04.338Z,78.24
2018-05-10T05:50:04.263Z,78.34
2018-05-10T05:51:04.197Z,78.34
2018-05-10T05:52:04.117Z,78.91
2018-05-10T05:53:04.052Z,77.95
2018-05-10T05:54:03.985Z,78.14
2018-05-10T05:55:03.915Z,78.34
2018-05-10T05:56:03.839Z,78.14
2018-05-10T05:57:03.762Z,78.43
2018-05-10T05:58:03.698Z,78.63
2018-05-10T05:59:03.625Z,79.00
2018-05-10T06:00:03.552Z,79.00
2018-05-10T06:01:03.471Z,78.81
2018-05-10T06:02:03.403Z,79.20
2018-05-10T06:03:03.330Z,79.29
2018-05-10T06:04:03.257Z,79.68
2018-05-10T06:05:03.195Z,79.10
2018-05-10T06:06:03.130Z,79.33
2018-05-10T06:07:03.050Z,79.05
2018-05-10T06:08:02.977Z,78.76
2018-05-10T06:09:02.905Z,79.24
2018-05-10T06:10:02.826Z,79.24
2018-05-10T06:11:02.766Z,79.20
2018-05-10T06:12:02.680Z,79.33
2018-05-10T06:13:02.620Z,79.14
2018-05-10T06:14:02.542Z,79.14
2018-05-10T06:15:02.503Z,79.33
2018-05-10T06:16:02.507Z,79.05
2018-05-10T06:17:02.371Z,79.05
2018-05-10T06:18:02.258Z,79.05
2018-05-10T06:19:02.188Z,79.52
2018-05-10T06:20:02.124Z,79.39
2018-05-10T06:21:02.046Z,79.68
2018-05-10T06:22:01.974Z,79.62
2018-05-10T06:23:01.901Z,79.39
2018-05-10T06:24:01.828Z,79.33
2018-05-10T06:25:01.790Z,78.66
2018-05-10T06:26:01.683Z,79.33
2018-05-10T06:27:01.643Z,78.47
2018-05-10T06:28:01.543Z,79.24
2018-05-10T06:29:01.470Z,78.38
2018-05-10T06:30:01.407Z,78.86
2018-05-10T06:31:01.325Z,78.57
2018-05-10T06:32:01.263Z,79.05
2018-05-10T06:33:01.187Z,78.86
2018-05-10T06:34:01.186Z,78.57
2018-05-10T06:35:01.043Z,78.57
2018-05-10T06:36:00.981Z,78.57
2018-05-10T06:37:00.901Z,78.66
2018-05-10T06:38:00.827Z,79.43
2018-05-10T06:39:00.772Z,78.47
2018-05-10T06:40:00.689Z,78.19
2018-05-10T06:41:00.621Z,78.47
2018-05-10T06:42:00.548Z,78.70
2018-05-10T06:43:00.471Z,78.61
2018-05-10T06:44:00.394Z,77.65
2018-05-10T06:45:00.331Z,77.26
2018-05-10T06:46:00.259Z,76.89
2018-05-10T06:47:00.189Z,77.42
2018-05-10T06:48:00.114Z,77.51
2018-05-10T06:49:00.045Z,76.75
2018-05-10T06:49:59.974Z,77.51
2018-05-10T06:50:59.905Z,76.84
2018-05-10T06:51:59.830Z,77.36
2018-05-10T06:52:59.763Z,77.84
2018-05-10T06:53:59.690Z,77.26
2018-05-10T06:54:59.618Z,76.50
2018-05-10T06:55:59.547Z,76.40
2018-05-10T06:56:59.471Z,77.17
2018-05-10T06:57:59.406Z,77.36
2018-05-10T06:58:59.332Z,76.79
2018-05-10T06:59:59.261Z,76.40
2018-05-10T07:00:59.189Z,76.40
2018-05-10T07:01:59.126Z,76.79
2018-05-10T07:02:59.050Z,75.45
2018-05-10T07:03:58.971Z,75.93
2018-05-10T07:04:58.912Z,76.35
2018-05-10T07:05:58.841Z,75.96
2018-05-10T07:06:58.776Z,75.01
2018-05-10T07:07:58.693Z,75.29
2018-05-10T07:08:58.623Z,74.62
2018-05-10T07:09:58.741Z,75.29
2018-05-10T07:10:58.483Z,75.20
2018-05-10T07:11:58.415Z,75.20
2018-05-10T07:12:58.338Z,75.20
2018-05-10T07:13:58.268Z,74.72
2018-05-10T07:14:58.201Z,74.91
2018-05-10T07:15:58.128Z,75.29
2018-05-10T07:16:58.058Z,75.20
2018-05-10T07:17:57.984Z,75.01
2018-05-10T07:18:57.915Z,75.20
2018-05-10T07:19:57.844Z,74.52
2018-05-10T07:20:57.773Z,73.76
2018-05-10T07:21:57.708Z,73.47
2018-05-10T07:22:57.636Z,73.86
2018-05-10T07:23:57.563Z,73.38
2018-05-10T07:24:57.498Z,73.47
2018-05-10T07:25:57.418Z,74.33
2018-05-10T07:26:57.349Z,74.24
2018-05-10T07:27:57.281Z,74.62
2018-05-10T07:28:57.212Z,74.72
2018-05-10T07:29:57.139Z,74.33
2018-05-10T07:30:57.069Z,74.72
2018-05-10T07:31:57.014Z,74.87
2018-05-10T07:32:56.936Z,75.39
2018-05-10T07:33:56.872Z,75.39
2018-05-10T07:34:56.787Z,74.62
2018-05-10T07:35:56.720Z,74.52
2018-05-10T07:36:56.641Z,74.62
2018-05-10T07:37:56.578Z,74.33
2018-05-10T07:38:56.506Z,73.38
2018-05-10T07:39:56.432Z,73.57
2018-05-10T07:40:56.360Z,73.38
2018-05-10T07:41:56.328Z,73.19
2018-05-10T07:42:56.220Z,73.38
2018-05-10T07:43:56.162Z,73.41
2018-05-10T07:44:56.083Z,72.03
2018-05-10T07:45:56.018Z,72.32
2018-05-10T07:46:55.942Z,72.17
2018-05-10T07:47:55.867Z,71.40
2018-05-10T07:48:55.800Z,72.07
2018-05-10T07:49:55.737Z,71.15
2018-05-10T07:50:55.661Z,70.44
2018-05-10T07:51:55.589Z,71.21
2018-05-10T07:52:55.519Z,71.69
2018-05-10T07:53:55.454Z,72.36
2018-05-10T07:54:55.382Z,72.17
2018-05-10T07:55:55.307Z,71.69
2018-05-10T07:56:55.238Z,71.40
2018-05-10T07:57:55.174Z,71.11
2018-05-10T07:58:55.104Z,70.73
2018-05-10T07:59:55.026Z,71.21
2018-05-10T08:00:54.960Z,72.39
2018-05-10T08:01:54.891Z,71.34
2018-05-10T08:02:54.819Z,70.38
2018-05-10T08:03:54.748Z,70.09
2018-05-10T08:04:54.683Z,70.76
2018-05-10T08:05:54.611Z,69.90
2018-05-10T08:06:54.600Z,69.13
2018-05-10T08:07:54.473Z,68.75
2018-05-10T08:08:54.402Z,69.52
2018-05-10T08:09:54.330Z,69.90
2018-05-10T08:10:54.261Z,69.81
2018-05-10T08:11:54.194Z,70.96
2018-05-10T08:12:54.118Z,70.29
2018-05-10T08:13:54.050Z,69.90
2018-05-10T08:14:53.979Z,68.66
2018-05-10T08:15:53.917Z,70.00
2018-05-10T08:16:53.929Z,70.38
2018-05-10T08:17:53.768Z,70.38
2018-05-10T08:18:53.706Z,69.81
2018-05-10T08:19:53.651Z,69.62
2018-05-10T08:20:53.562Z,70.76
2018-05-10T08:21:53.489Z,70.67
2018-05-10T08:22:53.420Z,69.96
2018-05-10T08:23:53.352Z,68.95
2018-05-10T08:24:53.283Z,69.23
2018-05-10T08:25:53.209Z,69.13
2018-05-10T08:26:53.138Z,69.62
2018-05-10T08:27:53.082Z,69.81
2018-05-10T08:28:53.004Z,70.15
2018-05-10T08:29:52.932Z,71.78
2018-05-10T08:30:52.884Z,70.00
2018-05-10T08:31:52.792Z,68.66
2018-05-10T08:32:52.722Z,68.95
2018-05-10T08:33:52.654Z,68.37
2018-05-10T08:34:52.582Z,68.95
2018-05-10T08:35:52.516Z,68.18
2018-05-10T08:36:52.481Z,68.08
2018-05-10T08:37:52.368Z,68.18
2018-05-10T08:38:52.332Z,67.89
2018-05-10T08:39:52.228Z,67.76
2018-05-10T08:40:52.160Z,68.75
2018-05-10T08:41:52.093Z,68.56
2018-05-10T08:42:52.023Z,68.75
2018-05-10T08:43:51.948Z,68.37
2018-05-10T08:44:51.881Z,69.04
2018-05-10T08:45:51.811Z,68.56
2018-05-10T08:46:51.746Z,67.79
2018-05-10T08:47:51.674Z,67.32
2018-05-10T08:48:51.606Z,66.83
2018-05-10T08:49:51.529Z,67.79
2018-05-10T08:50:51.469Z,67.32
2018-05-10T08:51:51.476Z,68.85
2018-05-10T08:52:51.320Z,67.50
2018-05-10T08:53:51.249Z,67.79
2018-05-10T08:54:51.180Z,67.32
2018-05-10T08:55:51.107Z,67.12
2018-05-10T08:56:51.041Z,67.41
2018-05-10T08:57:50.971Z,67.54
2018-05-10T08:58:50.899Z,68.02
2018-05-10T08:59:50.846Z,66.86
2018-05-10T09:00:50.761Z,66.19
2018-05-10T09:01:50.691Z,66.10
2018-05-10T09:02:50.623Z,66.29
2018-05-10T09:03:50.552Z,66.39
2018-05-10T09:04:50.486Z,66.39
2018-05-10T09:05:50.460Z,65.43
2018-05-10T09:06:50.373Z,65.81
2018-05-10T09:07:50.270Z,66.96
2018-05-10T09:08:50.210Z,66.29
2018-05-10T09:09:50.131Z,67.25
2018-05-10T09:10:50.064Z,66.49
2018-05-10T09:11:49.990Z,65.62
2018-05-10T09:12:49.922Z,65.81
2018-05-10T09:13:49.851Z,64.05
2018-05-10T09:14:49.789Z,63.19
2018-05-10T09:15:49.718Z,63.76
2018-05-10T09:16:49.642Z,63.67
2018-05-10T09:17:49.573Z,62.33
2018-05-10T09:18:49.505Z,62.81
2018-05-10T09:19:49.437Z,63.48
2018-05-10T09:20:49.368Z,62.04
2018-05-10T09:21:49.293Z,62.04
2018-05-10T09:22:49.225Z,62.62
2018-05-10T09:23:49.157Z,61.94
2018-05-10T09:24:49.089Z,61.98
2018-05-10T09:25:49.014Z,61.88
2018-05-10T09:26:48.945Z,62.07
2018-05-10T09:27:48.898Z,62.07
2018-05-10T09:28:48.813Z,61.02
2018-05-10T09:29:48.736Z,60.82
2018-05-10T09:30:48.667Z,59.77
2018-05-10T09:31:48.594Z,59.29
2018-05-10T09:32:48.528Z,59.86
2018-05-10T09:33:48.456Z,59.64
2018-05-10T09:34:48.395Z,61.02
2018-05-10T09:35:48.319Z,60.92
2018-05-10T09:36:48.247Z,61.18
2018-05-10T09:37:48.179Z,61.88
2018-05-10T09:38:48.109Z,61.75
2018-05-10T09:39:48.034Z,62.42
2018-05-10T09:40:47.967Z,62.04
2018-05-10T09:41:47.902Z,61.66
2018-05-10T09:42:47.827Z,60.79
2018-05-10T09:43:47.754Z,61.08
2018-05-10T09:44:47.756Z,60.96
2018-05-10T09:45:47.618Z,60.47
2018-05-10T09:46:47.546Z,59.90
2018-05-10T09:47:47.494Z,60.28
2018-05-10T09:48:47.406Z,61.53
2018-05-10T09:49:47.344Z,59.61
2018-05-10T09:50:47.268Z,59.80
2018-05-10T09:51:47.198Z,59.52
2018-05-10T09:52:47.207Z,59.42
2018-05-10T09:53:47.059Z,58.27
2018-05-10T09:54:46.987Z,57.98
2018-05-10T09:55:46.924Z,58.17
2018-05-10T09:56:46.850Z,57.70
2018-05-10T09:57:46.781Z,57.57
2018-05-10T09:58:46.708Z,58.34
2018-05-10T09:59:46.643Z,57.95
2018-05-10T10:00:46.568Z,57.76
2018-05-10T10:01:46.495Z,57.76
2018-05-10T10:02:46.433Z,57.86
2018-05-10T10:03:46.359Z,57.95
2018-05-10T10:04:46.287Z,58.05
2018-05-10T10:05:46.250Z,58.34
2018-05-10T10:06:46.156Z,57.38
2018-05-10T10:07:46.077Z,57.67
2018-05-10T10:08:46.004Z,57.86
2018-05-10T10:09:45.944Z,58.44
2018-05-10T10:10:45.863Z,58.34
2018-05-10T10:11:45.862Z,58.05
2018-05-10T10:12:45.723Z,58.24
2018-05-10T10:13:45.657Z,58.44
2018-05-10T10:14:45.583Z,58.44
2018-05-10T10:15:45.549Z,58.44
2018-05-10T10:16:45.440Z,59.58
2018-05-10T10:17:45.375Z,59.87
2018-05-10T10:18:45.299Z,59.58
2018-05-10T10:19:45.227Z,60.93
2018-05-10T10:20:45.162Z,60.73
2018-05-10T10:21:45.089Z,61.02
2018-05-10T10:22:45.021Z,61.11
2018-05-10T10:23:44.948Z,62.04
2018-05-10T10:24:44.876Z,61.79
2018-05-10T10:25:44.808Z,61.85
2018-05-10T10:26:44.738Z,62.65
2018-05-10T10:27:44.664Z,62.93
2018-05-10T10:28:44.596Z,62.74
2018-05-10T10:29:44.543Z,62.74
2018-05-10T10:30:44.454Z,62.55
2018-05-10T10:31:44.384Z,62.55
2018-05-10T10:32:44.317Z,62.07
2018-05-10T10:33:44.243Z,62.17
2018-05-10T10:34:44.175Z,62.14
2018-05-10T10:35:44.107Z,62.43
2018-05-10T10:36:44.033Z,62.62
2018-05-10T10:37:43.956Z,62.71
2018-05-10T10:38:43.903Z,62.81
2018-05-10T10:39:43.818Z,62.71
2018-05-10T10:40:43.753Z,62.04
2018-05-10T10:41:43.679Z,62.33
2018-05-10T10:42:43.608Z,62.62
2018-05-10T10:43:43.558Z,63.86
2018-05-10T10:44:43.480Z,63.03
2018-05-10T10:45:43.393Z,62.81
2018-05-10T10:46:43.334Z,62.62
2018-05-10T10:47:43.258Z,62.71
2018-05-10T10:48:43.182Z,62.04
2018-05-10T10:49:43.121Z,61.18
2018-05-10T10:50:43.043Z,60.03
2018-05-10T10:51:42.969Z,57.35
2018-05-10T10:52:42.899Z,56.68
2018-05-10T10:53:42.828Z,57.16
2018-05-10T10:54:42.759Z,57.45
2018-05-10T10:55:42.689Z,56.39
2018-05-10T10:56:42.615Z,55.15
2018-05-10T10:57:42.545Z,55.34
2018-05-10T10:58:42.479Z,56.10
2018-05-10T10:59:42.403Z,55.82
2018-05-10T11:00:42.332Z,55.44
2018-05-10T11:01:42.333Z,55.05
2018-05-10T11:02:42.189Z,55.15
2018-05-10T11:03:42.121Z,56.20
2018-05-10T11:04:42.048Z,57.16
2018-05-10T11:05:41.980Z,56.39
2018-05-10T11:06:41.906Z,56.68
2018-05-10T11:07:41.838Z,56.39
2018-05-10T11:08:41.766Z,56.87
2018-05-10T11:09:41.694Z,58.22
2018-05-10T11:10:41.626Z,58.59
2018-05-10T11:11:41.553Z,57.35
2018-05-10T11:12:41.483Z,57.26
2018-05-10T11:13:41.409Z,58.31
2018-05-10T11:14:41.340Z,58.12
2018-05-10T11:15:41.270Z,58.40
2018-05-10T11:16:41.197Z,57.83
2018-05-10T11:17:41.132Z,58.31
2018-05-10T11:18:41.056Z,58.31
2018-05-10T11:19:40.983Z,58.72
2018-05-10T11:20:40.913Z,57.38
2018-05-10T11:21:40.846Z,57.86
2018-05-10T11:22:40.876Z,59.30
2018-05-10T11:23:40.704Z,58.56
2018-05-10T11:24:40.632Z,57.70
2018-05-10T11:25:40.559Z,57.28
2018-05-10T11:26:40.494Z,58.53
2018-05-10T11:27:40.418Z,58.27
2018-05-10T11:28:40.348Z,58.37
2018-05-10T11:29:40.280Z,58.65
2018-05-10T11:30:40.209Z,58.37
2018-05-10T11:31:40.138Z,58.56
2018-05-10T11:32:40.067Z,59.23
2018-05-10T11:33:39.997Z,59.71
2018-05-10T11:34:39.927Z,59.80
2018-05-10T11:35:39.858Z,59.23
2018-05-10T11:36:39.788Z,59.61
2018-05-10T11:37:39.722Z,59.83
2018-05-10T11:38:39.654Z,59.55
2018-05-10T11:39:39.577Z,59.64
2018-05-10T11:40:39.507Z,59.55
2018-05-10T11:41:39.439Z,59.61
2018-05-10T11:42:39.373Z,60.76
2018-05-10T11:43:39.298Z,61.05
2018-05-10T11:44:39.236Z,60.96
2018-05-10T11:45:39.162Z,61.27
2018-05-10T11:46:39.091Z,61.34
2018-05-10T11:47:39.040Z,62.20
2018-05-10T11:48:38.968Z,62.10
2018-05-10T11:49:38.881Z,62.10
2018-05-10T11:50:38.816Z,62.55
2018-05-10T11:51:38.746Z,63.42
2018-05-10T11:52:38.672Z,63.80
2018-05-10T11:53:38.604Z,63.89
2018-05-10T11:54:38.533Z,64.37
2018-05-10T11:55:38.462Z,64.56
2018-05-10T11:56:38.409Z,65.23
2018-05-10T11:57:38.325Z,65.78
2018-05-10T11:58:38.256Z,65.97
2018-05-10T11:59:38.206Z,65.71
2018-05-10T12:00:38.112Z,65.78
2018-05-10T12:01:38.044Z,65.68
2018-05-10T12:02:37.983Z,66.16
2018-05-10T12:03:37.907Z,66.54
2018-05-10T12:04:37.834Z,66.25
2018-05-10T12:05:37.792Z,66.74
2018-05-10T12:06:37.696Z,67.79
2018-05-10T12:07:37.624Z,67.79
2018-05-10T12:08:37.552Z,67.69
2018-05-10T12:09:37.485Z,68.07
2018-05-10T12:10:37.413Z,67.79
2018-05-10T12:11:37.342Z,68.27
2018-05-10T12:12:37.352Z,67.88
2018-05-10T12:13:37.240Z,68.07
2018-05-10T12:14:37.131Z,68.42
2018-05-10T12:15:37.057Z,67.88
2018-05-10T12:16:36.983Z,68.46
2018-05-10T12:17:36.917Z,68.17
2018-05-10T12:18:36.840Z,68.27
2018-05-10T12:19:36.776Z,68.55
2018-05-10T12:20:36.701Z,68.17
2018-05-10T12:21:36.635Z,68.36
2018-05-10T12:22:36.569Z,68.17
2018-05-10T12:23:36.497Z,67.41
2018-05-10T12:24:36.423Z,67.34
2018-05-10T12:25:36.439Z,68.21
2018-05-10T12:26:36.279Z,67.82
2018-05-10T12:27:36.208Z,67.72
2018-05-10T12:28:36.137Z,67.72
2018-05-10T12:29:36.075Z,67.69
2018-05-10T12:30:35.999Z,68.17
2018-05-10T12:31:35.940Z,68.65
2018-05-10T12:32:35.855Z,68.07
2018-05-10T12:33:35.784Z,67.88
2018-05-10T12:34:35.714Z,68.01
2018-05-10T12:35:35.643Z,68.46
2018-05-10T12:36:35.575Z,68.17
2018-05-10T12:37:35.502Z,68.27
2018-05-10T12:38:35.431Z,69.42
2018-05-10T12:39:35.360Z,68.40
2018-05-10T12:40:35.351Z,68.17
2018-05-10T12:41:35.311Z,68.17
2018-05-10T12:42:35.144Z,68.36
2018-05-10T12:43:35.079Z,68.46
2018-05-10T12:44:35.007Z,68.94
2018-05-10T12:45:34.937Z,69.51
2018-05-10T12:46:34.861Z,69.51
2018-05-10T12:47:34.799Z,69.99
2018-05-10T12:48:34.795Z,69.51
2018-05-10T12:49:34.657Z,69.60
2018-05-10T12:50:34.582Z,70.72
2018-05-10T12:51:34.513Z,71.77